Terminal Aerodrome Forecast
Issued by NWS

Home | Current Version | Previous Version | Text Only | Print | Product List | Glossary On
Versions: 1 2 3 4 5 6 7 8 9 10 11 12 13 14 15
265
FTUS44 KLIX 211722
TAFMSY
TAF
KMSY 211722Z 2118/2224 13011KT P6SM SCT035 BKN100
     FM220400 14007KT P6SM BKN025 OVC050
     FM221200 16010KT 5SM SHRA VCTS OVC015CB
      TEMPO 2213/2217 VRB20KT 2SM TSRA BKN003CB
     FM221700 19011KT 5SM SHRA OVC020
     FM222000 24016KT P6SM SCT025 BKN050=

USA.gov is the U.S. government's official web portal to all federal, state and local government web resources and services.